Portada
METAR-TAF:

METAR-TAF

Aeroports :

Maurici, Maurici

latitud: 20-26S, longitud: 057-40E, altitud: 55 m

Observació

L'informe es va fer fa 54 minuts, a les 14:00 UTC
Vent 6 kt del Sud/Sud-Oest
Temperatura 29°C
Humitat 74%
Pressió 1006 hPa
Visibilitat 10 km o més
Núvols disperses a una alçada de 1800 ft

METAR: FIMP 081400Z 21006KT 9999 SCT018 29/24 Q1006

Hora: 18:54 (14:54 UTC)

Pronòstic

L'informe es va fer fa 3 hores i 44 minuts, a les 11:10 UTC
Pronòstic vàlid del 08 a les 12 UTC al 09 a les 18 UTC
Vent 10 kt del Sud/Sud-Oest
Visibilitat 10 km o més
Núvols disperses a una alçada de 1600 ft
Evolucionant progressivament
l' 08 a les 18 UTC al 08 a les 20 UTC
Vent 3 kt del Nord/Nord-Oest
Evolucionant progressivament
l' 09 a les 04 UTC al 09 a les 06 UTC
Vent 5 kt del Sud

TAF: FIMP 081110Z 0812/0918 21010KT 9999 SCT016 BECMG 0818/0820 33003KT BECMG 0904/0906 18005KT

Observacions i pronòstics meteorològics de més de 4000 aeroports (METAR i TAF).

Les estacions disponibles són els punts grocs i vermells al mapa.

Posi el ratolí al punt desitjat per veure el nom de l'estació.

Feu clic per veure les observacions i els pronòstics meteorològics.

Per canviar el mapa: feu clic els botons verds amb una creu de color negre per apropar; al botó verd amb un guió per allunyar la imatge; o en les fletxes verdes per a mapes adjacents.


METAR-TAF: